Time;durP1;ratioP1;P1;durP2;ratioP2;P2;SDS_P1;SDS_P2;PMS_P1;PMS_P2;Temp;Humidity;BMP_temperature;BMP_pressure;BME280_temperature;BME280_humidity;BME280_pressure;Samples;Min_cycle;Max_cycle;Signal;HPM_P1;HPM_P2
2022/01/12 00:01:57;;;;;;;9.98;1.20;;;22.10;24.40;;;;;;5072408;28;20112;-61
2022/01/12 00:04:23;;;;;;;12.93;1.60;;;22.00;25.10;;;;;;5086514;28;20179;-57
2022/01/12 00:06:49;;;;;;;17.90;2.08;;;21.90;25.90;;;;;;5090372;28;20072;-58
2022/01/12 00:09:16;;;;;;;23.55;2.00;;;21.80;26.80;;;;;;5089237;28;20076;-60
2022/01/12 00:11:42;;;;;;;13.25;1.70;;;21.70;27.30;;;;;;5088228;28;20431;-61
2022/01/12 00:14:08;;;;;;;22.63;3.15;;;21.60;27.30;;;;;;5073189;28;20076;-59
2022/01/12 00:16:35;;;;;;;20.05;3.05;;;21.50;27.80;;;;;;5090412;28;20465;-59
2022/01/12 00:19:02;;;;;;;17.63;2.33;;;21.40;28.50;;;;;;5095274;28;20091;-59
2022/01/12 00:21:28;;;;;;;27.42;2.72;;;21.40;29.10;;;;;;5089416;28;20104;-60
2022/01/12 00:23:55;;;;;;;11.38;1.75;;;21.20;28.80;;;;;;5092290;28;20192;-63
2022/01/12 00:26:39;;;;;;;14.38;2.53;;;21.10;28.70;;;;;;5088730;28;20084;-60
2022/01/12 00:34:35;;;;;;;7.63;2.25;;;20.60;28.30;;;;;;5087804;28;20095;-60
2022/01/12 00:37:01;;;;;;;16.08;2.30;;;20.40;28.30;;;;;;5087884;28;20068;-59
2022/01/12 00:39:28;;;;;;;25.17;2.65;;;20.30;29.10;;;;;;5087830;28;20079;-60
2022/01/12 00:41:54;;;;;;;27.58;3.03;;;20.20;29.90;;;;;;5087821;28;20165;-60
2022/01/12 00:44:31;;;;;;;11.68;2.55;;;20.10;29.70;;;;;;5089827;28;20073;-59
2022/01/12 00:46:57;;;;;;;22.42;2.90;;;20.00;29.60;;;;;;5088337;28;20073;-61
2022/01/12 00:49:24;;;;;;;27.95;2.80;;;19.80;30.20;;;;;;5087877;28;20103;-56
2022/01/12 00:51:54;;;;;;;20.92;3.28;;;19.70;30.20;;;;;;5087947;28;20080;-59
2022/01/12 00:54:21;;;;;;;14.15;3.38;;;19.60;30.20;;;;;;5099967;28;20172;-58
2022/01/12 00:56:48;;;;;;;20.08;3.05;;;19.50;30.50;;;;;;5088407;28;20081;-59
2022/01/12 00:59:14;;;;;;;37.40;4.32;;;19.40;30.10;;;;;;5088739;28;20536;-62
2022/01/12 01:01:41;;;;;;;50.22;4.72;;;19.30;30.30;;;;;;5087860;28;20195;-61
2022/01/12 01:04:07;;;;;;;42.65;4.72;;;19.10;30.90;;;;;;5088296;28;20073;-60
2022/01/12 01:06:35;;;;;;;;;;;19.00;31.40;;;;;;5088184;28;20604;-58
2022/01/12 01:09:03;;;;;;;42.65;5.57;;;18.90;31.50;;;;;;5086713;28;20406;-60
2022/01/12 01:11:30;;;;;;;45.13;5.57;;;18.70;31.80;;;;;;5088806;28;20150;-58
2022/01/12 01:13:59;;;;;;;41.72;5.47;;;18.70;32.10;;;;;;5089812;28;20083;-59
2022/01/12 01:25:31;;;;;;;40.03;7.25;;;18.30;33.00;;;;;;5028713;28;20420;-58
2022/01/12 01:27:55;;;;;;;53.03;8.20;;;18.10;33.40;;;;;;5026621;28;20074;-59
2022/01/12 01:30:21;;;;;;;39.70;7.10;;;17.90;33.50;;;;;;5013774;28;20102;-56
2022/01/12 01:32:48;;;;;;;46.78;7.70;;;18.00;34.70;;;;;;4991732;28;20070;-59
2022/01/12 01:35:15;;;;;;;48.03;7.43;;;17.80;34.00;;;;;;5024932;28;20548;-60
2022/01/12 01:37:41;;;;;;;49.42;8.57;;;17.80;34.80;;;;;;5008242;28;20595;-59
2022/01/12 01:40:10;;;;;;;47.38;8.18;;;17.70;34.70;;;;;;5024244;28;20090;-61
2022/01/12 01:43:06;;;;;;;53.53;7.80;;;17.60;35.20;;;;;;5024299;28;20097;-59
2022/01/12 01:53:47;;;;;;;45.75;7.35;;;17.30;36.00;;;;;;5032601;28;20493;-58
2022/01/12 01:56:13;;;;;;;46.15;8.35;;;17.90;65.40;;;;;;5073427;28;20088;-60
2022/01/12 01:58:40;;;;;;;48.67;7.72;;;17.10;58.90;;;;;;5085099;28;20394;-59
2022/01/12 02:01:07;;;;;;;46.42;7.75;;;;;;;;;;5071280;28;20020;-58
2022/01/12 02:03:34;;;;;;;58.58;8.75;;;17.00;52.60;;;;;;5086086;28;20034;-56
2022/01/12 02:06:00;;;;;;;59.33;10.43;;;17.00;37.00;;;;;;5085677;28;20099;-60
2022/01/12 02:08:27;;;;;;;79.22;10.15;;;16.90;36.80;;;;;;5086803;28;20068;-59
2022/01/12 02:10:58;;;;;;;67.20;10.02;;;16.90;37.10;;;;;;5088116;28;20553;-59
2022/01/12 02:13:25;;;;;;;49.40;9.73;;;16.90;37.60;;;;;;5094416;28;20092;-58
2022/01/12 02:15:54;;;;;;;47.08;9.20;;;16.80;37.80;;;;;;5089037;28;20081;-59
2022/01/12 02:18:37;;;;;;;60.45;10.88;;;16.70;37.80;;;;;;5086999;28;20068;-59
2022/01/12 02:35:32;;;;;;;66.68;13.48;;;16.50;39.70;;;;;;5087563;28;20098;-61
2022/01/12 02:40:26;;;;;;;;;;;16.40;40.30;;;;;;5088425;28;20109;-61
2022/01/12 02:43:06;;;;;;;61.95;12.38;;;16.40;40.50;;;;;;5089068;28;19956;-59
2022/01/12 02:51:30;;;;;;;66.47;14.50;;;16.20;40.70;;;;;;5090919;28;20111;-58
2022/01/12 02:53:57;;;;;;;72.50;14.93;;;16.10;41.20;;;;;;5087385;28;20071;-59
2022/01/12 02:56:33;;;;;;;94.10;27.60;;;16.10;41.30;;;;;;5099105;28;20104;-58
2022/01/12 02:59:00;;;;;;;82.57;29.00;;;16.10;41.20;;;;;;5091776;28;20070;-59
2022/01/12 03:04:09;;;;;;;73.13;13.80;;;16.00;40.50;;;;;;5089912;28;20518;-59
2022/01/12 03:06:39;;;;;;;66.20;14.43;;;15.90;40.90;;;;;;5097008;28;20136;-57
2022/01/12 03:09:08;;;;;;;77.97;14.55;;;15.90;41.00;;;;;;5088566;28;20163;-59
2022/01/12 03:11:36;;;;;;;80.50;14.15;;;15.90;41.00;;;;;;5089334;28;20484;-59
2022/01/12 03:14:03;;;;;;;60.70;13.73;;;15.90;41.10;;;;;;5091247;28;20506;-57
2022/01/12 03:16:30;;;;;;;75.15;14.88;;;15.80;41.00;;;;;;5089834;28;20610;-57
2022/01/12 03:19:01;;;;;;;71.00;14.40;;;15.70;41.20;;;;;;5088744;28;20093;-56
2022/01/12 03:21:33;;;;;;;86.63;15.23;;;15.70;41.40;;;;;;5090893;28;20112;-59
2022/01/12 03:24:01;;;;;;;66.75;15.10;;;15.60;41.70;;;;;;5090717;28;20060;-56
2022/01/12 03:26:29;;;;;;;90.53;16.95;;;15.60;42.00;;;;;;5089012;28;20095;-58
2022/01/12 03:28:57;;;;;;;77.55;16.30;;;15.60;42.10;;;;;;5090575;28;20099;-58
2022/01/12 03:31:33;;;;;;;89.97;16.58;;;15.50;42.20;;;;;;5088218;28;20129;-61
2022/01/12 03:34:09;;;;;;;75.47;16.55;;;15.50;42.20;;;;;;5089220;28;20096;-58
2022/01/12 03:39:05;;;;;;;95.80;16.80;;;15.50;42.20;;;;;;5092496;28;20996;-58
2022/01/12 03:41:35;;;;;;;72.68;16.13;;;15.50;41.80;;;;;;5089948;28;20175;-58
2022/01/12 03:44:04;;;;;;;83.97;15.30;;;15.50;42.10;;;;;;5073467;28;20514;-60
2022/01/12 03:46:36;;;;;;;88.95;16.10;;;15.40;42.30;;;;;;5056979;28;20064;-60
2022/01/12 03:49:03;;;;;;;93.38;16.90;;;15.40;42.50;;;;;;5089014;28;20088;-60
2022/01/12 03:51:30;;;;;;;98.68;17.33;;;15.50;42.90;;;;;;5088863;28;20069;-60
2022/01/12 03:53:56;;;;;;;79.90;17.98;;;15.40;42.50;;;;;;5089203;28;20080;-58
2022/01/12 03:56:22;;;;;;;;;;;15.40;42.70;;;;;;5090156;28;20500;-59
2022/01/12 03:58:49;;;;;;;83.55;17.83;;;15.30;43.10;;;;;;5089859;28;20593;-58
2022/01/12 04:01:15;;;;;;;;;;;15.20;42.70;;;;;;5088449;28;20142;-61
2022/01/12 04:03:45;;;;;;;80.55;17.50;;;15.20;42.80;;;;;;5089108;28;19981;-61
2022/01/12 04:08:56;;;;;;;77.30;17.67;;;15.10;43.00;;;;;;5090295;28;20107;-59
2022/01/12 04:11:23;;;;;;;69.35;16.63;;;15.10;43.20;;;;;;5070593;28;20541;-55
2022/01/12 04:13:50;;;;;;;;;;;15.10;43.30;;;;;;5090853;28;20094;-60
2022/01/12 04:16:17;;;;;;;102.13;18.55;;;15.10;43.90;;;;;;5089228;28;20078;-61
2022/01/12 04:18:43;;;;;;;107.35;18.45;;;15.00;43.70;;;;;;5088780;28;20103;-59
2022/01/12 04:21:11;;;;;;;;;;;15.00;43.50;;;;;;5089117;28;20116;-57
2022/01/12 04:23:38;;;;;;;86.18;17.63;;;15.00;43.70;;;;;;5088781;28;19956;-60
2022/01/12 04:26:12;;;;;;;91.20;19.90;;;14.90;43.20;;;;;;5088121;28;20084;-59
2022/01/12 04:28:43;;;;;;;99.75;21.60;;;14.90;42.80;;;;;;5090247;28;20415;-58
2022/01/12 04:31:11;;;;;;;105.60;21.38;;;14.90;42.90;;;;;;5055116;28;20496;-58
2022/01/12 04:33:39;;;;;;;105.72;19.38;;;14.90;42.30;;;;;;5088662;28;20527;-59
2022/01/12 04:36:07;;;;;;;107.22;19.98;;;14.90;42.10;;;;;;5086144;28;20526;-59
2022/01/12 04:38:34;;;;;;;93.95;19.58;;;14.90;42.00;;;;;;5088912;28;20080;-58
2022/01/12 04:41:06;;;;;;;103.63;21.58;;;14.90;41.90;;;;;;5087768;28;20116;-59
2022/01/12 04:43:34;;;;;;;84.00;20.63;;;14.80;41.60;;;;;;5088749;28;20079;-59
2022/01/12 04:48:48;;;;;;;92.28;20.77;;;14.70;41.80;;;;;;5087743;28;20061;-58
2022/01/12 04:51:14;;;;;;;88.85;20.65;;;14.80;41.90;;;;;;5088693;28;20223;-63
2022/01/12 04:53:41;;;;;;;84.20;19.73;;;14.70;41.70;;;;;;5089736;28;20072;-59
2022/01/12 04:56:07;;;;;;;89.10;19.52;;;14.70;42.40;;;;;;5089207;28;20080;-54
2022/01/12 04:58:33;;;;;;;;;;;14.60;41.70;;;;;;5088160;28;20440;-58
2022/01/12 05:01:08;;;;;;;115.88;23.52;;;14.60;41.60;;;;;;5087842;28;19976;-60
2022/01/12 05:13:59;;;;;;;103.32;22.20;;;14.60;42.70;;;;;;5095927;28;20495;-59
2022/01/12 05:16:26;;;;;;;98.32;21.10;;;14.60;43.90;;;;;;5093922;28;20079;-57
2022/01/12 05:18:55;;;;;;;99.35;21.73;;;14.50;42.90;;;;;;5087436;28;20125;-57
2022/01/12 05:21:24;;;;;;;91.60;20.33;;;14.40;44.30;;;;;;5086972;28;20115;-58
2022/01/12 05:23:51;;;;;;;97.93;22.98;;;14.40;44.00;;;;;;5087438;28;20395;-60
2022/01/12 05:26:18;;;;;;;115.60;24.88;;;14.40;44.10;;;;;;5088466;28;20089;-61
2022/01/12 05:28:44;;;;;;;;;;;14.40;44.20;;;;;;5087373;28;20073;-61
2022/01/12 05:31:12;;;;;;;85.43;21.63;;;14.30;84.60;;;;;;5087812;28;20007;-59
2022/01/12 05:33:46;;;;;;;109.55;23.52;;;14.00;86.20;;;;;;5087450;28;20024;-61
2022/01/12 05:36:12;;;;;;;126.97;24.08;;;14.10;44.20;;;;;;5071394;28;20086;-60
2022/01/12 05:38:38;;;;;;;;;;;14.10;45.00;;;;;;5071580;28;20066;-58
2022/01/12 05:41:06;;;;;;;99.60;22.60;;;13.80;58.80;;;;;;5087454;28;20071;-63
2022/01/12 05:43:35;;;;;;;91.13;21.60;;;14.00;47.40;;;;;;5086856;28;20137;-60
2022/01/12 05:46:10;;;;;;;118.35;24.08;;;;;;;;;;5090779;28;20163;-58
2022/01/12 05:51:22;;;;;;;96.35;22.52;;;13.60;78.80;;;;;;5090105;28;20160;-61
2022/01/12 05:53:49;;;;;;;102.53;23.60;;;;;;;;;;5092240;28;20497;-59
2022/01/12 05:56:15;;;;;;;103.10;24.98;;;;;;;;;;5088887;28;20125;-58
2022/01/12 05:58:42;;;;;;;111.07;23.20;;;;;;;;;;5086819;28;20031;-60
2022/01/12 06:01:08;;;;;;;;;;;13.90;82.60;;;;;;5090082;28;20538;-61
2022/01/12 06:03:34;;;;;;;107.50;24.23;;;13.60;90.80;;;;;;5088107;28;20315;-60
2022/01/12 06:06:00;;;;;;;;;;;13.80;63.60;;;;;;5087922;28;20108;-61
2022/01/12 06:08:27;;;;;;;96.75;25.00;;;13.70;45.50;;;;;;5086325;28;19939;-61
2022/01/12 06:10:53;;;;;;;121.70;29.30;;;;;;;;;;5089028;28;20445;-60
2022/01/12 06:13:20;;;;;;;110.13;25.50;;;13.90;72.30;;;;;;5086142;28;20027;-58
2022/01/12 06:15:46;;;;;;;148.75;25.73;;;;;;;;;;5087672;28;20701;-56
2022/01/12 06:18:12;;;;;;;;;;;13.60;91.40;;;;;;5087877;28;20029;-59
2022/01/12 06:20:39;;;;;;;110.28;26.77;;;;;;;;;;5085743;28;20309;-58
2022/01/12 06:23:06;;;;;;;149.60;29.52;;;13.50;65.60;;;;;;5087270;28;20418;-58
2022/01/12 06:25:32;;;;;;;;;;;13.10;69.90;;;;;;5070474;28;20034;-56
2022/01/12 06:28:20;;;;;;;106.30;27.40;;;;;;;;;;5089130;28;19907;-58
2022/01/12 06:33:29;;;;;;;93.88;27.45;;;13.30;61.80;;;;;;5086965;28;20437;-61
2022/01/12 06:35:55;;;;;;;102.10;27.73;;;13.40;76.30;;;;;;5086741;28;20027;-60
2022/01/12 06:38:22;;;;;;;119.95;31.92;;;13.60;54.50;;;;;;5101713;28;20075;-59
2022/01/12 06:40:48;;;;;;;;;;;;;;;;;;5085918;28;20028;-60
2022/01/12 06:43:14;;;;;;;110.88;27.92;;;;;;;;;;5086550;28;19908;-59
2022/01/12 06:45:41;;;;;;;123.25;28.83;;;;;;;;;;5086198;28;20478;-59
2022/01/12 06:48:08;;;;;;;109.60;28.95;;;12.70;70.00;;;;;;5084981;28;20031;-61
2022/01/12 06:50:34;;;;;;;;;;;13.40;55.00;;;;;;5084616;28;20504;-59
2022/01/12 06:53:01;;;;;;;113.70;29.45;;;13.30;71.20;;;;;;5089756;28;20392;-60
2022/01/12 06:55:27;;;;;;;93.95;26.67;;;13.20;51.90;;;;;;5086989;28;20080;-60
2022/01/12 06:57:53;;;;;;;;;;;13.10;46.70;;;;;;5083893;28;20141;-60
2022/01/12 07:00:20;;;;;;;114.45;30.23;;;;;;;;;;5085871;28;19957;-63
2022/01/12 07:02:47;;;;;;;117.82;30.13;;;13.20;46.30;;;;;;5085987;28;20072;-57
2022/01/12 07:05:14;;;;;;;135.98;32.03;;;;;;;;;;5085807;28;20125;-59
2022/01/12 07:07:40;;;;;;;109.82;30.83;;;;;;;;;;5085555;28;20020;-59
2022/01/12 07:10:06;;;;;;;;;;;;;;;;;;5084166;28;21166;-59
2022/01/12 07:12:33;;;;;;;110.40;28.02;;;;;;;;;;5085465;28;19911;-59
2022/01/12 07:14:59;;;;;;;108.70;28.50;;;13.00;57.60;;;;;;5087418;28;20083;-57
2022/01/12 07:17:26;;;;;;;106.35;30.13;;;;;;;;;;5087414;28;20113;-56
2022/01/12 07:19:52;;;;;;;103.63;27.05;;;12.60;69.80;;;;;;5089301;28;20406;-61
2022/01/12 07:22:18;;;;;;;107.60;28.38;;;12.80;46.10;;;;;;5067772;28;20106;-59
2022/01/12 07:24:45;;;;;;;103.47;27.45;;;12.80;46.60;;;;;;5086623;28;20077;-59
2022/01/12 07:27:11;;;;;;;;;;;12.70;46.40;;;;;;5085420;28;20118;-59
2022/01/12 07:29:37;;;;;;;98.97;28.25;;;13.10;76.90;;;;;;5088816;28;19915;-59
2022/01/12 07:32:04;;;;;;;;;;;12.70;79.50;;;;;;5090365;28;20437;-60
2022/01/12 07:34:30;;;;;;;99.35;27.33;;;12.30;53.10;;;;;;5087880;28;20423;-57
2022/01/12 07:36:56;;;;;;;104.53;26.83;;;12.80;89.70;;;;;;5092209;28;20080;-59
2022/01/12 07:39:23;;;;;;;;;;;12.60;69.00;;;;;;5088813;28;20043;-59
2022/01/12 07:41:50;;;;;;;104.23;26.20;;;12.50;78.70;;;;;;5089526;28;19911;-62
2022/01/12 07:44:16;;;;;;;99.40;24.65;;;12.50;82.40;;;;;;5089784;28;20329;-57
2022/01/12 07:46:42;;;;;;;;;;;12.50;78.40;;;;;;5088839;28;20043;-60
2022/01/12 07:49:09;;;;;;;103.63;24.13;;;12.50;79.10;;;;;;5089748;28;19940;-61
2022/01/12 07:51:35;;;;;;;82.10;24.23;;;;;;;;;;5088818;28;20521;-57
2022/01/12 07:54:02;;;;;;;;;;;12.50;81.20;;;;;;5087288;28;20033;-59
2022/01/12 07:56:28;;;;;;;72.38;23.92;;;12.80;57.90;;;;;;5088839;28;19908;-62
2022/01/12 07:58:54;;;;;;;75.88;22.25;;;12.90;71.60;;;;;;5087393;28;20081;-59
2022/01/12 08:01:21;;;;;;;76.22;21.92;;;12.50;53.70;;;;;;5072654;28;20083;-59
2022/01/12 08:03:47;;;;;;;;;;;12.50;70.80;;;;;;5089972;28;20083;-59
2022/01/12 08:06:14;;;;;;;67.57;20.58;;;;;;;;;;5088604;28;19945;-59
2022/01/12 08:08:40;;;;;;;77.95;22.08;;;12.60;83.40;;;;;;5089445;28;20366;-59
2022/01/12 08:11:06;;;;;;;65.30;19.73;;;;;;;;;;5088182;28;20148;-59
2022/01/12 08:13:33;;;;;;;72.43;20.27;;;;;;;;;;5088089;28;20090;-58
2022/01/12 08:16:00;;;;;;;77.15;20.13;;;;;;;;;;5088247;28;20120;-58
2022/01/12 08:18:26;;;;;;;68.95;20.67;;;12.30;60.70;;;;;;5087316;28;20031;-60
2022/01/12 08:20:53;;;;;;;65.05;20.02;;;;;;;;;;5090117;28;20061;-62
2022/01/12 08:23:19;;;;;;;;;;;;;;;;;;5088800;28;20024;-61
2022/01/12 08:25:45;;;;;;;72.03;21.00;;;12.20;46.00;;;;;;5087912;28;19908;-60
2022/01/12 08:28:11;;;;;;;;;;;12.20;46.50;;;;;;5072241;28;20073;-58
2022/01/12 08:30:38;;;;;;;73.32;20.00;;;12.20;47.00;;;;;;5088502;28;20005;-62
2022/01/12 08:33:05;;;;;;;;;;;12.10;47.30;;;;;;5088426;28;20151;-58
2022/01/12 08:35:32;;;;;;;69.07;20.00;;;12.00;47.30;;;;;;5086877;28;20445;-60
2022/01/12 08:37:59;;;;;;;62.95;20.00;;;12.10;47.50;;;;;;5072793;28;20076;-61
2022/01/12 08:40:25;;;;;;;81.35;19.92;;;12.10;47.30;;;;;;5072874;28;20068;-58
2022/01/12 08:42:53;;;;;;;65.53;18.60;;;12.10;47.30;;;;;;5071319;28;20080;-59
2022/01/12 08:45:19;;;;;;;56.38;17.00;;;12.00;47.30;;;;;;5089075;28;20440;-58
2022/01/12 08:47:46;;;;;;;54.58;16.80;;;12.00;47.40;;;;;;5087930;28;20108;-61
2022/01/12 08:50:14;;;;;;;57.70;16.45;;;11.90;47.60;;;;;;5086342;28;21638;-59
2022/01/12 08:52:46;;;;;;;60.22;16.80;;;11.90;47.80;;;;;;5088331;28;20103;-58
2022/01/12 08:55:14;;;;;;;50.80;14.68;;;11.90;47.70;;;;;;5070941;28;20547;-59
2022/01/12 08:57:41;;;;;;;55.60;16.17;;;11.90;47.60;;;;;;5087769;28;20076;-56
2022/01/12 09:00:09;;;;;;;49.33;14.73;;;11.80;47.70;;;;;;5086964;28;20538;-59
2022/01/12 09:02:36;;;;;;;44.40;15.38;;;11.80;47.80;;;;;;5069953;28;20088;-56
2022/01/12 09:05:04;;;;;;;52.22;14.63;;;11.80;48.00;;;;;;5087959;28;20092;-58
2022/01/12 09:07:30;;;;;;;46.25;14.20;;;11.80;47.70;;;;;;5085269;28;20103;-58
2022/01/12 09:09:57;;;;;;;42.58;12.13;;;11.80;47.80;;;;;;5087759;28;20083;-60
2022/01/12 09:12:23;;;;;;;35.45;10.48;;;11.80;47.10;;;;;;5088760;28;20097;-60
2022/01/12 09:14:51;;;;;;;;;;;11.80;46.30;;;;;;5085881;28;20582;-59
2022/01/12 09:17:19;;;;;;;;;;;12.00;45.70;;;;;;5086260;28;19961;-58
2022/01/12 09:19:46;;;;;;;17.88;6.55;;;12.00;43.80;;;;;;5089218;28;20466;-62
2022/01/12 09:22:13;;;;;;;9.65;3.97;;;12.00;42.30;;;;;;5069470;28;20124;-59
2022/01/12 09:24:41;;;;;;;13.65;3.17;;;12.20;41.40;;;;;;5086681;28;20138;-58
2022/01/12 09:27:08;;;;;;;4.63;1.90;;;12.30;40.60;;;;;;5086150;28;20092;-57
2022/01/12 09:29:34;;;;;;;3.33;1.70;;;12.40;39.70;;;;;;5070797;28;20102;-60
2022/01/12 09:32:01;;;;;;;6.60;1.58;;;12.40;39.40;;;;;;5087598;28;20180;-58
2022/01/12 09:34:28;;;;;;;6.70;1.60;;;12.50;38.70;;;;;;5085596;28;20064;-57
2022/01/12 09:36:54;;;;;;;;;;;12.60;38.70;;;;;;5087232;28;20492;-60
2022/01/12 09:39:20;;;;;;;3.15;1.23;;;12.60;38.80;;;;;;5069161;28;20047;-61
2022/01/12 09:41:47;;;;;;;5.22;1.25;;;12.60;38.60;;;;;;5085752;28;20081;-59
2022/01/12 09:44:15;;;;;;;3.58;1.17;;;12.60;38.70;;;;;;5070446;28;20554;-61
2022/01/12 09:46:42;;;;;;;8.40;1.48;;;12.70;38.70;;;;;;5085302;28;20167;-60
2022/01/12 09:49:09;;;;;;;2.28;1.10;;;12.70;39.30;;;;;;5069500;28;20089;-59
2022/01/12 09:51:36;;;;;;;6.35;1.27;;;12.70;39.30;;;;;;5086289;28;20081;-58
2022/01/12 09:54:02;;;;;;;;;;;12.70;39.60;;;;;;5086053;28;20072;-61
2022/01/12 09:56:30;;;;;;;5.60;1.60;;;12.70;38.90;;;;;;5086319;28;20303;-59
2022/01/12 09:58:58;;;;;;;3.63;1.20;;;12.70;39.30;;;;;;5088361;28;20073;-60
2022/01/12 10:01:39;;;;;;;3.00;1.20;;;12.70;39.20;;;;;;5071013;28;20096;-58
2022/01/12 10:04:17;;;;;;;8.23;1.73;;;12.70;39.50;;;;;;5088177;28;20069;-58
2022/01/12 10:06:50;;;;;;;3.97;1.30;;;12.70;40.00;;;;;;5085137;28;20546;-58
2022/01/12 10:09:21;;;;;;;11.48;1.33;;;12.60;40.20;;;;;;5084523;28;20107;-60
2022/01/12 10:12:00;;;;;;;3.22;1.17;;;12.70;40.80;;;;;;5081358;28;20092;-59
2022/01/12 10:14:41;;;;;;;3.05;1.30;;;12.70;40.80;;;;;;5084773;28;20076;-58
2022/01/12 10:17:09;;;;;;;5.53;1.17;;;12.60;40.50;;;;;;5070899;28;20073;-60
2022/01/12 10:19:36;;;;;;;4.25;1.40;;;12.60;40.50;;;;;;5086326;28;20495;-58
2022/01/12 10:22:06;;;;;;;;;;;12.50;41.10;;;;;;5070526;28;20108;-59
2022/01/12 10:24:37;;;;;;;6.60;1.60;;;12.50;40.70;;;;;;5085086;28;20006;-58
2022/01/12 10:27:19;;;;;;;4.70;1.08;;;12.40;41.10;;;;;;5087060;28;20074;-57
2022/01/12 10:29:55;;;;;;;7.70;1.80;;;12.40;41.50;;;;;;5086158;28;20534;-58
2022/01/12 10:32:21;;;;;;;2.50;1.17;;;12.30;41.70;;;;;;5069852;28;20534;-57
2022/01/12 10:34:48;;;;;;;;;;;12.30;42.40;;;;;;5086049;28;20083;-61
2022/01/12 10:37:18;;;;;;;6.45;1.60;;;12.40;42.90;;;;;;5084069;28;19962;-57
2022/01/12 10:39:48;;;;;;;7.25;1.45;;;12.40;43.10;;;;;;5085759;28;20085;-57
2022/01/12 10:42:19;;;;;;;7.20;1.70;;;12.40;43.10;;;;;;5067696;28;20099;-59
2022/01/12 10:44:48;;;;;;;3.65;1.63;;;12.40;43.70;;;;;;5086010;28;20077;-61
2022/01/12 10:47:26;;;;;;;8.07;2.00;;;12.60;78.70;;;;;;5085523;28;20534;-60
2022/01/12 10:49:56;;;;;;;6.28;1.85;;;12.10;50.70;;;;;;5086141;28;20363;-54
2022/01/12 10:52:25;;;;;;;10.52;2.30;;;12.20;67.00;;;;;;5086159;28;20062;-60
2022/01/12 10:54:57;;;;;;;8.95;1.90;;;12.10;82.90;;;;;;5085652;28;20524;-58
2022/01/12 10:57:24;;;;;;;5.50;2.08;;;;;;;;;;5068006;28;20020;-58
2022/01/12 11:00:07;;;;;;;;;;;12.10;83.10;;;;;;5089681;28;20020;-59
2022/01/12 11:02:36;;;;;;;9.80;2.13;;;12.00;43.70;;;;;;5084283;28;19908;-57
2022/01/12 11:05:03;;;;;;;11.85;2.30;;;;;;;;;;5090027;28;20641;-61
2022/01/12 11:07:30;;;;;;;9.73;2.20;;;12.10;44.50;;;;;;5089703;28;20050;-59
2022/01/12 11:09:58;;;;;;;;;;;11.90;57.50;;;;;;5091204;28;20038;-62
2022/01/12 11:12:25;;;;;;;8.57;2.45;;;12.10;79.70;;;;;;5089865;28;19948;-57
2022/01/12 11:14:52;;;;;;;13.90;2.42;;;11.70;55.60;;;;;;5089632;28;20480;-62
2022/01/12 11:17:18;;;;;;;10.13;2.40;;;;;;;;;;5087727;28;20470;-59
2022/01/12 11:20:12;;;;;;;8.05;1.88;;;11.70;66.60;;;;;;5090782;28;20474;-58
2022/01/12 11:22:38;;;;;;;12.23;2.30;;;;;;;;;;5089669;28;20082;-59
2022/01/12 11:25:16;;;;;;;10.80;2.70;;;11.80;69.90;;;;;;5090335;28;20036;-61
2022/01/12 11:27:43;;;;;;;6.57;2.28;;;11.60;90.00;;;;;;5073250;28;20133;-61
2022/01/12 11:30:24;;;;;;;10.68;2.80;;;11.50;77.50;;;;;;5088523;28;20538;-58
2022/01/12 11:32:57;;;;;;;7.38;2.05;;;;;;;;;;5086565;28;20541;-59
2022/01/12 11:35:30;;;;;;;9.23;2.20;;;11.60;42.60;;;;;;5087830;28;20030;-60
2022/01/12 11:37:59;;;;;;;6.93;2.28;;;11.50;44.90;;;;;;5088901;28;20398;-60
2022/01/12 11:40:42;;;;;;;10.38;2.72;;;;;;;;;;5088844;28;20027;-60
2022/01/12 11:43:30;;;;;;;6.38;2.38;;;10.50;54.70;;;;;;5091336;28;20428;-60
2022/01/12 11:46:17;;;;;;;8.45;2.63;;;12.10;75.80;;;;;;5088138;28;20473;-60
2022/01/12 11:48:56;;;;;;;15.73;3.88;;;11.40;43.70;;;;;;5088411;28;20103;-58
2022/01/12 11:51:39;;;;;;;13.82;3.65;;;11.30;72.30;;;;;;5086693;28;20367;-61
2022/01/12 11:54:16;;;;;;;8.20;3.63;;;11.50;57.00;;;;;;5072106;28;20033;-59
2022/01/12 11:56:59;;;;;;;20.20;4.10;;;11.40;47.70;;;;;;5088773;28;20151;-58
2022/01/12 11:59:28;;;;;;;11.75;3.40;;;11.40;56.20;;;;;;5090772;28;20092;-58
2022/01/12 12:02:14;;;;;;;14.85;3.90;;;11.20;65.20;;;;;;5088896;28;20081;-60
2022/01/12 12:04:53;;;;;;;9.27;3.47;;;11.30;60.00;;;;;;5087680;28;20042;-59
2022/01/12 12:07:22;;;;;;;12.15;3.58;;;;;;;;;;5090431;28;20080;-59
2022/01/12 12:09:57;;;;;;;14.13;2.92;;;11.00;57.80;;;;;;5087333;28;20024;-59
2022/01/12 12:12:35;;;;;;;10.27;3.20;;;11.20;46.50;;;;;;5072733;28;20031;-59
2022/01/12 12:15:07;;;;;;;12.32;3.55;;;10.80;68.90;;;;;;5086927;28;20054;-60
2022/01/12 12:17:36;;;;;;;13.10;2.95;;;11.10;46.90;;;;;;5087811;28;20199;-61
2022/01/12 12:20:06;;;;;;;9.23;3.10;;;11.20;47.50;;;;;;5054423;28;20070;-58
2022/01/12 12:22:37;;;;;;;16.75;3.53;;;11.10;47.60;;;;;;5088728;28;20080;-59
2022/01/12 12:25:15;;;;;;;9.32;2.85;;;11.00;49.60;;;;;;5072970;28;20077;-58
2022/01/12 12:27:44;;;;;;;11.60;3.42;;;10.80;58.50;;;;;;5088838;28;20118;-58
2022/01/12 12:30:12;;;;;;;11.82;3.10;;;;;;;;;;5087399;28;20055;-60
2022/01/12 12:32:41;;;;;;;16.45;3.50;;;;;;;;;;5089169;28;20097;-58
2022/01/12 12:35:12;;;;;;;11.10;3.42;;;10.80;64.40;;;;;;5088106;28;20012;-61
2022/01/12 12:37:40;;;;;;;8.80;3.53;;;;;;;;;;5088007;28;20020;-60
2022/01/12 12:40:36;;;;;;;11.50;3.75;;;;;;;;;;5089457;28;20440;-59
2022/01/12 12:43:05;;;;;;;12.68;3.65;;;;;;;;;;5065729;28;20031;-60
2022/01/12 12:45:39;;;;;;;11.43;3.75;;;;;;;;;;5087171;28;20024;-59
2022/01/12 12:48:06;;;;;;;14.95;3.90;;;;;;;;;;5086798;28;20039;-59
2022/01/12 12:50:32;;;;;;;18.00;3.67;;;;;;;;;;5071922;28;20110;-64
2022/01/12 12:53:00;;;;;;;8.52;3.15;;;10.60;46.20;;;;;;5087618;28;20470;-56
2022/01/12 12:55:26;;;;;;;13.88;3.70;;;11.10;67.50;;;;;;5088697;28;20077;-59
2022/01/12 12:57:53;;;;;;;;;;;10.60;47.20;;;;;;5087188;28;20501;-59
2022/01/12 13:00:25;;;;;;;16.55;4.40;;;10.60;48.40;;;;;;5087152;28;19957;-61
2022/01/12 13:02:55;;;;;;;19.88;5.07;;;10.60;47.70;;;;;;5085483;28;20489;-60
2022/01/12 13:05:24;;;;;;;21.98;4.72;;;10.50;47.50;;;;;;5086448;28;20469;-59
2022/01/12 13:07:51;;;;;;;17.00;4.72;;;10.50;47.70;;;;;;5086231;28;21543;-60
2022/01/12 13:10:27;;;;;;;17.50;5.18;;;9.80;59.00;;;;;;5087251;28;20164;-59
2022/01/12 13:13:00;;;;;;;21.20;5.17;;;10.40;47.00;;;;;;5087476;28;20503;-63
2022/01/12 13:15:32;;;;;;;20.10;4.88;;;10.50;61.50;;;;;;5088682;28;20820;-63
2022/01/12 13:18:01;;;;;;;21.58;5.50;;;10.40;46.90;;;;;;5088552;28;20031;-62
2022/01/12 13:23:26;;;;;;;16.88;5.45;;;10.50;49.70;;;;;;5089984;28;20069;-60
2022/01/12 13:25:56;;;;;;;26.00;5.97;;;;;;;;;;5086486;28;20069;-58
2022/01/12 13:28:23;;;;;;;17.38;6.20;;;10.30;48.00;;;;;;5086896;28;20047;-59
2022/01/12 13:30:59;;;;;;;20.02;6.50;;;10.30;47.90;;;;;;5085877;28;20069;-60
2022/01/12 13:33:45;;;;;;;23.70;6.80;;;10.30;47.70;;;;;;5084025;28;20095;-57
2022/01/12 13:36:22;;;;;;;24.95;7.38;;;10.30;48.40;;;;;;5085692;28;20073;-60
2022/01/12 13:38:59;;;;;;;22.02;7.00;;;10.20;50.70;;;;;;5086973;28;21635;-62
2022/01/12 13:41:27;;;;;;;;;;;10.30;48.80;;;;;;5087467;28;20082;-60
2022/01/12 13:43:59;;;;;;;31.02;8.70;;;10.20;48.80;;;;;;5085855;28;20007;-60
2022/01/12 13:46:38;;;;;;;31.30;7.50;;;10.20;50.30;;;;;;5086638;28;20408;-60
2022/01/12 13:51:37;;;;;;;25.70;8.48;;;8.50;64.80;;;;;;5086146;28;20537;-58
2022/01/12 13:54:05;;;;;;;29.75;8.57;;;;;;;;;;5086691;28;20492;-61
2022/01/12 13:56:36;;;;;;;23.73;7.85;;;;;;;;;;5067295;28;20023;-59
2022/01/12 13:59:04;;;;;;;33.45;9.18;;;10.20;51.60;;;;;;5089776;28;20037;-61
2022/01/12 14:01:36;;;;;;;27.65;9.00;;;10.20;52.50;;;;;;5070591;28;20439;-60
2022/01/12 14:06:47;;;;;;;30.58;8.75;;;10.10;49.40;;;;;;5085962;28;20120;-62
2022/01/12 14:09:31;;;;;;;31.90;8.38;;;10.20;49.70;;;;;;5085664;28;20084;-63
2022/01/12 14:12:11;;;;;;;33.47;8.55;;;10.20;49.90;;;;;;5084636;28;20084;-59
2022/01/12 14:14:53;;;;;;;30.38;8.95;;;10.10;49.50;;;;;;5087071;28;20084;-60
2022/01/12 14:17:43;;;;;;;24.38;8.98;;;10.10;49.60;;;;;;5085796;28;20115;-61
2022/01/12 14:20:23;;;;;;;27.83;8.82;;;10.20;50.60;;;;;;5084329;28;20069;-62
2022/01/12 14:22:56;;;;;;;28.33;8.95;;;10.20;51.10;;;;;;5071098;28;20530;-59
2022/01/12 14:25:34;;;;;;;32.10;8.98;;;10.20;50.70;;;;;;5070477;28;20415;-59
2022/01/12 14:28:00;;;;;;;22.55;8.90;;;10.20;51.10;;;;;;5086872;28;20079;-58
2022/01/12 14:30:26;;;;;;;;;;;10.20;50.40;;;;;;5086529;28;20076;-62